Nearby METAR Reports

KLNK - Lincoln, Nebraska, USA
Distance from station: WNW 8mi, 13km
Updated: Wed, 20-Nov-2019 10:54am CST
Clear
Clear
 Wind from SSE
Wind: SSE 15 mph , 24 km/h
Temperature: 57°F , 14°C
Dew Point: 39°F , 4°C
Humidity: 51%
Barometer: 29.76 inHg , 1007.8 hPa
Clouds: Clear
Visibility: 10 miles , 16 km
2019/11/20 16:54 KLNK 201654Z 15013KT 10SM CLR 14/04 A2976 RMK AO2 SLP077 T01390039
KAHQ - Wahoo, Nebraska, USA
Distance from station: N 31mi, 49km
Updated: Wed, 20-Nov-2019 11:35am CST
Clear
Clear
 Wind from SE
Wind: SE 20 mph , 31 km/h, Gust: 23 mph , 37 km/h
Temperature: 59°F , 15°C
Dew Point: 39°F , 4°C
Humidity: 48%
Barometer: 29.75 inHg , 1007.5 hPa
Clouds: Clear
Visibility: 10 miles , 16 km
2019/11/20 17:35 KAHQ 201735Z AUTO 14017G20KT 10SM CLR 15/04 A2975 RMK AO2 T01460041
 
KBIE - Beatrice Municip, Nebraska, USA
Distance from station: S 36mi, 57km
Updated: Wed, 20-Nov-2019 11:35am CST
Clear
Clear
 Wind from SSE
Wind: SSE 15 mph , 24 km/h, Gust: 18 mph , 30 km/h
Temperature: 61°F , 16°C
Dew Point: 46°F , 8°C
Humidity: 59%
Barometer: 29.74 inHg , 1007.1 hPa
Clouds: Clear
Visibility: 10 miles , 16 km
2019/11/20 17:35 KBIE 201735Z AUTO 16013G16KT 10SM CLR 16/08 A2974 RMK AO2 T01620076
KMLE - Omaha/Millard, Nebraska, USA
Distance from station: NE 39mi, 63km
Updated: Wed, 20-Nov-2019 11:35am CST
Clear
Clear
 Wind from SE
Wind: SE 20 mph , 31 km/h
Temperature: 59°F , 15°C
Dew Point: 43°F , 6°C
Humidity: 55%
Barometer: 29.77 inHg , 1008.1 hPa
Clouds: Clear
Visibility: 10 miles , 16 km
2019/11/20 17:35 KMLE 201735Z AUTO 14017KT 10SM CLR 15/06 A2977 RMK AO2 T01500055
 
KPMV - Plattsmouth Muni, Nebraska, USA
Distance from station: ENE 39mi, 63km
Updated: Wed, 20-Nov-2019 11:35am CST
Clear
Clear
 Wind from SSE
Wind: SSE 18 mph , 30 km/h, Gust: 26 mph , 43 km/h
Temperature: 57°F , 14°C
Dew Point: 43°F , 6°C
Humidity: 59%
Barometer: 29.77 inHg , 1008.1 hPa
Clouds: Clear
Visibility: 10 miles , 16 km
2019/11/20 17:35 KPMV 201735Z AUTO 15016G23KT 10SM CLR 14/06 A2977 RMK AO2 T01420058
KAFK - Nebraska City, Nebraska, USA
Distance from station: ESE 43mi, 69km
Updated: Wed, 20-Nov-2019 11:35am CST
Clear
Clear
 Wind from SSE
Wind: SSE 21 mph , 33 km/h, Gust: 25 mph , 41 km/h
Temperature: 63°F , 17°C
Dew Point: 43°F , 6°C
Humidity: 49%
Barometer: 29.78 inHg , 1008.5 hPa
Clouds: Clear
Visibility: 10 miles , 16 km
2019/11/20 17:35 KAFK 201735Z AUTO 16018G22KT 10SM CLR 17/06 A2978 RMK AO2 T01680062
 
KOFF - Offutt Afb/Belle, Nebraska, USA
Distance from station: ENE 44mi, 70km
Updated: Wed, 20-Nov-2019 10:56am CST
Overcast
Overcast
 Wind from SE
Wind: SE 14 mph , 22 km/h, Gust: 22 mph , 35 km/h
Temperature: 57°F , 14°C
Dew Point: 37°F , 3°C
Humidity: 48%
Barometer: 29.80 inHg , 1009.1 hPa
Clouds: Overcast
Visibility: 10 miles , 16 km
Cloud details: Overcast 25000 ft
2019/11/20 16:56 KOFF 201656Z 14012G19KT 10SM OVC250 14/03 A2980 RMK AO2A SLP092 RVRNO $
KFET - Fremont Muni Arp, Nebraska, USA
Distance from station: N 46mi, 74km
Updated: Wed, 20-Nov-2019 11:35am CST
Clear
Clear
 Wind from SE
Wind: SE 18 mph , 30 km/h, Gust: 23 mph , 37 km/h
Temperature: 59°F , 15°C
Dew Point: 41°F , 5°C
Humidity: 51%
Barometer: 29.75 inHg , 1007.5 hPa
Clouds: Clear
Visibility: 10 miles , 16 km
2019/11/20 17:35 KFET 201735Z AUTO 14016G20KT 10SM CLR 15/05 A2975 RMK AO2 T01500052
 
KBTA - Blair Muni, Nebraska, USA
Distance from station: NNE 51mi, 82km
Updated: Wed, 20-Nov-2019 11:35am CST
Clear
Clear
 Wind from SE
Wind: SE 16 mph , 26 km/h, Gust: 21 mph , 33 km/h
Temperature: 59°F , 15°C
Dew Point: 41°F , 5°C
Humidity: 51%
Barometer: 29.77 inHg , 1008.1 hPa
Clouds: Clear
Visibility: 10 miles , 16 km
2019/11/20 17:35 KBTA 201735Z AUTO 14014G18KT 10SM CLR 15/05 A2977 RMK AO2 T01460047
KJYR - York, Nebraska, USA
Distance from station: W 52mi, 84km
Updated: Wed, 20-Nov-2019 11:35am CST
Clear
Clear
 Wind from SSE
Wind: SSE 12 mph , 19 km/h, Gust: 20 mph , 31 km/h
Temperature: 55°F , 13°C
Dew Point: 43°F , 6°C
Humidity: 63%
Barometer: 29.70 inHg , 1005.8 hPa
Clouds: Clear
Visibility: 10 miles , 16 km
2019/11/20 17:35 KJYR 201735Z AUTO 16010G17KT 10SM CLR 13/06 A2970 RMK AO2
 
KOMA - Omaha/Eppley, Nebraska, USA
Distance from station: NE 53mi, 85km
Updated: Wed, 20-Nov-2019 10:52am CST
Overcast
Overcast
 Wind from SSE
Wind: SSE 17 mph , 28 km/h, Gust: 26 mph , 43 km/h
Temperature: 57°F , 14°C
Dew Point: 39°F , 4°C
Humidity: 51%
Barometer: 29.80 inHg , 1009.1 hPa
Clouds: Overcast
Visibility: 10 miles , 16 km
Cloud details: Overcast 25000 ft
2019/11/20 16:52 KOMA 201652Z 15015G23KT 10SM OVC250 14/04 A2980 RMK AO2 SLP093 T01440039
KOLU - Columbus Muni, Nebraska, USA
Distance from station: NW 58mi, 93km
Updated: Wed, 20-Nov-2019 10:56am CST
Clear
Clear
 Wind from SSE
Wind: SSE 14 mph , 22 km/h
Temperature: 55°F , 13°C
Dew Point: 39°F , 4°C
Humidity: 55%
Barometer: 29.73 inHg , 1006.8 hPa
Clouds: Clear
Visibility: 10 miles , 16 km
2019/11/20 16:56 KOLU 201656Z AUTO 15012KT 10SM CLR 13/04 A2973 RMK AO2 SLP075 T01280044